createdAt,value
2019-06-08T00:01:22.868Z,96.20
2019-06-08T00:03:52.658Z,96.50
2019-06-08T00:06:23.027Z,96.50
2019-06-08T00:08:53.038Z,96.40
2019-06-08T00:11:23.476Z,96.70
2019-06-08T00:13:53.577Z,96.90
2019-06-08T00:16:23.937Z,96.70
2019-06-08T00:18:53.917Z,96.70
2019-06-08T00:21:24.094Z,97.10
2019-06-08T00:23:54.973Z,97.00
2019-06-08T00:26:24.489Z,96.80
2019-06-08T00:28:54.422Z,96.70
2019-06-08T00:31:23.797Z,97.00
2019-06-08T00:33:53.129Z,96.80
2019-06-08T00:36:23.014Z,97.00
2019-06-08T00:38:53.109Z,97.60
2019-06-08T00:41:23.661Z,97.60
2019-06-08T00:43:53.700Z,97.50
2019-06-08T00:46:23.607Z,97.30
2019-06-08T00:48:53.605Z,97.40
2019-06-08T00:51:23.184Z,97.20
2019-06-08T00:53:53.605Z,97.80
2019-06-08T00:56:23.789Z,97.60
2019-06-08T00:58:53.716Z,97.70
2019-06-08T01:01:25.615Z,98.10
2019-06-08T01:03:54.140Z,98.40
2019-06-08T01:06:23.430Z,98.50
2019-06-08T01:08:52.747Z,98.40
2019-06-08T01:11:22.566Z,98.80
2019-06-08T01:13:52.422Z,98.90
2019-06-08T01:16:22.826Z,99.40
2019-06-08T01:18:52.913Z,99.60
2019-06-08T01:21:23.226Z,99.60
2019-06-08T01:23:53.213Z,99.60
2019-06-08T01:26:23.904Z,99.30
2019-06-08T01:28:53.342Z,99.10
2019-06-08T01:31:22.740Z,99.90
2019-06-08T01:33:52.050Z,99.90
2019-06-08T01:36:22.687Z,99.90
2019-06-08T01:38:52.142Z,99.90
2019-06-08T01:41:21.434Z,99.90
2019-06-08T01:43:50.837Z,99.90
2019-06-08T01:46:20.257Z,99.90
2019-06-08T01:48:49.555Z,99.90
2019-06-08T01:51:18.898Z,99.90
2019-06-08T01:53:49.269Z,99.90
2019-06-08T01:56:18.602Z,99.90
2019-06-08T01:58:47.945Z,99.90
2019-06-08T02:01:17.238Z,99.90
2019-06-08T02:03:46.595Z,99.90
2019-06-08T02:06:15.989Z,99.90
2019-06-08T02:08:45.342Z,99.90
2019-06-08T02:11:14.624Z,99.90
2019-06-08T02:13:43.923Z,99.90
2019-06-08T02:16:13.260Z,99.90
2019-06-08T02:18:50.129Z,99.90
2019-06-08T02:21:13.750Z,99.90
2019-06-08T02:23:43.109Z,99.90
2019-06-08T02:26:12.411Z,99.90
2019-06-08T02:28:41.821Z,99.90
2019-06-08T02:31:11.164Z,99.90
2019-06-08T02:33:40.567Z,99.90
2019-06-08T02:36:10.510Z,99.90
2019-06-08T02:38:39.834Z,99.90
2019-06-08T02:41:09.247Z,99.90
2019-06-08T02:43:40.322Z,99.90
2019-06-08T02:46:09.616Z,99.90
2019-06-08T02:49:01.777Z,99.90
2019-06-08T02:51:10.956Z,99.90
2019-06-08T02:53:41.553Z,99.90
2019-06-08T02:56:14.913Z,98.80
2019-06-08T02:58:46.178Z,97.80
2019-06-08T03:01:17.615Z,96.10
2019-06-08T03:03:48.833Z,95.00
2019-06-08T03:06:21.010Z,94.30
2019-06-08T03:08:52.004Z,92.70
2019-06-08T03:11:21.710Z,92.30
2019-06-08T03:13:53.174Z,91.80
2019-06-08T03:16:22.509Z,91.60
2019-06-08T03:18:51.854Z,91.30
2019-06-08T03:21:21.217Z,90.80
2019-06-08T03:23:50.545Z,90.30
2019-06-08T03:26:19.854Z,89.00
2019-06-08T03:28:49.186Z,86.90
2019-06-08T03:31:18.528Z,86.30
2019-06-08T03:33:55.032Z,84.90
2019-06-08T03:36:18.919Z,83.90
2019-06-08T03:38:48.342Z,83.40
2019-06-08T03:41:17.734Z,81.70
2019-06-08T03:43:47.139Z,79.70
2019-06-08T03:46:16.511Z,78.90
2019-06-08T03:48:46.486Z,78.60
2019-06-08T03:51:16.486Z,78.70
2019-06-08T03:53:47.413Z,78.10
2019-06-08T03:56:16.915Z,77.30
2019-06-08T03:58:47.873Z,77.00
2019-06-08T04:01:17.343Z,77.00
2019-06-08T04:03:46.727Z,76.10
2019-06-08T04:06:16.094Z,76.70
2019-06-08T04:08:47.428Z,75.60
2019-06-08T04:11:16.514Z,75.60
2019-06-08T04:13:47.111Z,74.20
2019-06-08T04:16:17.113Z,74.30
2019-06-08T04:18:46.947Z,74.00
2019-06-08T04:21:16.981Z,73.60
2019-06-08T04:23:47.078Z,73.30
2019-06-08T04:26:17.193Z,73.50
2019-06-08T04:28:47.371Z,73.40
2019-06-08T04:31:17.592Z,73.00
2019-06-08T04:33:47.007Z,72.90
2019-06-08T04:36:16.982Z,72.20
2019-06-08T04:38:47.815Z,72.50
2019-06-08T04:41:17.478Z,72.70
2019-06-08T04:43:47.830Z,73.20
2019-06-08T04:46:17.811Z,73.10
2019-06-08T04:48:48.004Z,73.20
2019-06-08T04:51:18.167Z,73.40
2019-06-08T04:53:49.315Z,73.20
2019-06-08T04:56:18.475Z,72.90
2019-06-08T04:58:48.991Z,72.90
2019-06-08T05:01:18.858Z,72.80
2019-06-08T05:03:49.967Z,72.70
2019-06-08T05:06:19.459Z,72.60
2019-06-08T05:08:49.450Z,72.80
2019-06-08T05:11:19.704Z,73.00
2019-06-08T05:13:49.647Z,73.20
2019-06-08T05:16:19.842Z,73.60
2019-06-08T05:18:49.652Z,73.20
2019-06-08T05:21:19.903Z,73.00
2019-06-08T05:23:57.692Z,72.80
2019-06-08T05:26:20.248Z,73.10
2019-06-08T05:28:49.695Z,73.20
2019-06-08T05:31:19.650Z,73.10
2019-06-08T05:33:49.695Z,74.00
2019-06-08T05:36:19.650Z,73.50
2019-06-08T05:38:49.874Z,73.00
2019-06-08T05:41:20.368Z,72.80
2019-06-08T05:43:51.133Z,72.80
2019-06-08T05:46:20.470Z,72.80
2019-06-08T05:48:50.345Z,72.50
2019-06-08T05:51:20.458Z,72.40
2019-06-08T05:53:50.123Z,72.50
2019-06-08T05:56:20.283Z,71.70
2019-06-08T05:58:50.343Z,71.50
2019-06-08T06:01:20.369Z,71.30
2019-06-08T06:03:51.767Z,71.90
2019-06-08T06:06:21.456Z,71.20
2019-06-08T06:08:51.067Z,69.90
2019-06-08T06:11:21.022Z,70.50
2019-06-08T06:13:51.562Z,70.10
2019-06-08T06:16:21.582Z,69.90
2019-06-08T06:18:52.211Z,70.30
2019-06-08T06:21:22.031Z,70.00
2019-06-08T06:23:52.062Z,70.80
2019-06-08T06:26:21.736Z,69.60
2019-06-08T06:28:51.855Z,69.80
2019-06-08T06:31:21.886Z,70.00
2019-06-08T06:33:52.291Z,70.60
2019-06-08T06:36:22.442Z,68.70
2019-06-08T06:38:52.274Z,70.30
2019-06-08T06:41:22.259Z,68.70
2019-06-08T06:43:52.199Z,68.20
2019-06-08T06:46:22.265Z,68.70
2019-06-08T06:48:52.548Z,68.80
2019-06-08T06:51:26.693Z,68.90
2019-06-08T06:53:53.707Z,68.50
2019-06-08T06:56:22.994Z,68.50
2019-06-08T06:58:53.364Z,69.10
2019-06-08T07:01:23.616Z,68.20
2019-06-08T07:03:54.342Z,67.60
2019-06-08T07:06:23.835Z,68.20
2019-06-08T07:08:54.432Z,67.90
2019-06-08T07:11:24.178Z,69.10
2019-06-08T07:13:55.012Z,68.50
2019-06-08T07:16:24.847Z,67.30
2019-06-08T07:18:54.494Z,68.00
2019-06-08T07:21:24.539Z,68.10
2019-06-08T07:23:56.070Z,66.70
2019-06-08T07:26:24.926Z,66.70
2019-06-08T07:28:55.300Z,66.80
2019-06-08T07:31:25.380Z,65.40
2019-06-08T07:33:55.669Z,66.70
2019-06-08T07:36:27.840Z,66.30
2019-06-08T07:38:57.157Z,66.20
2019-06-08T07:41:26.576Z,67.20
2019-06-08T07:43:56.546Z,66.80
2019-06-08T07:46:26.581Z,64.40
2019-06-08T07:48:56.542Z,64.90
2019-06-08T07:51:26.637Z,64.90
2019-06-08T07:53:57.001Z,65.00
2019-06-08T07:56:26.445Z,63.30
2019-06-08T07:58:57.066Z,64.80
2019-06-08T08:01:35.893Z,65.30
2019-06-08T08:03:58.449Z,66.30
2019-06-08T08:06:30.312Z,63.80
2019-06-08T08:09:01.191Z,63.80
2019-06-08T08:11:30.723Z,65.40
2019-06-08T08:14:00.049Z,65.10
2019-06-08T08:16:29.377Z,63.70
2019-06-08T08:18:59.737Z,64.50
2019-06-08T08:21:29.632Z,63.60
2019-06-08T08:24:01.470Z,63.60
2019-06-08T08:26:34.371Z,62.30
2019-06-08T08:29:03.473Z,62.10
2019-06-08T08:31:33.518Z,63.70
2019-06-08T08:34:05.583Z,63.30
2019-06-08T08:36:34.881Z,61.30
2019-06-08T08:39:04.985Z,62.80
2019-06-08T08:41:34.321Z,61.20
2019-06-08T08:44:04.810Z,61.40
2019-06-08T08:46:34.829Z,63.00
2019-06-08T08:49:09.436Z,59.80
2019-06-08T08:51:37.650Z,58.90
2019-06-08T08:54:08.492Z,59.70
2019-06-08T08:56:38.413Z,59.90
2019-06-08T08:59:10.851Z,59.70
2019-06-08T09:01:39.418Z,58.90
2019-06-08T09:04:08.990Z,59.20
2019-06-08T09:06:39.133Z,59.30
2019-06-08T09:09:09.071Z,59.10
2019-06-08T09:11:41.251Z,58.10
2019-06-08T09:14:13.745Z,58.30
2019-06-08T09:16:40.627Z,58.00
2019-06-08T09:19:10.030Z,58.00
2019-06-08T09:21:40.001Z,58.40
2019-06-08T09:24:10.183Z,56.70
2019-06-08T09:26:40.232Z,57.10
2019-06-08T09:29:11.251Z,56.20
2019-06-08T09:31:40.581Z,56.50
2019-06-08T09:34:14.935Z,56.20
2019-06-08T09:36:41.069Z,57.10
2019-06-08T09:39:12.970Z,56.70
2019-06-08T09:41:41.985Z,57.60
2019-06-08T09:44:12.012Z,56.70
2019-06-08T09:46:42.026Z,57.30
2019-06-08T09:49:12.044Z,56.30
2019-06-08T09:51:42.018Z,56.70
2019-06-08T09:54:12.860Z,56.20
2019-06-08T09:56:42.411Z,56.60
2019-06-08T09:59:14.749Z,55.60
2019-06-08T10:01:42.945Z,57.20
2019-06-08T10:04:12.267Z,56.50
2019-06-08T10:06:41.593Z,55.60
2019-06-08T10:09:11.828Z,55.20
2019-06-08T10:11:41.196Z,55.80
2019-06-08T10:14:12.463Z,54.80
2019-06-08T10:16:41.624Z,54.90
2019-06-08T10:19:11.029Z,56.10
2019-06-08T10:21:42.958Z,54.50
2019-06-08T10:24:11.361Z,55.60
2019-06-08T10:26:40.704Z,54.70
2019-06-08T10:29:10.750Z,54.60
2019-06-08T10:31:43.652Z,55.00
2019-06-08T10:34:12.097Z,53.10
2019-06-08T10:36:42.091Z,53.20
2019-06-08T10:39:12.138Z,54.10
2019-06-08T10:41:42.149Z,53.20
2019-06-08T10:44:13.839Z,54.10
2019-06-08T10:46:42.518Z,52.80
2019-06-08T10:49:14.268Z,53.10
2019-06-08T10:51:42.961Z,52.50
2019-06-08T10:54:12.309Z,52.80
2019-06-08T10:56:41.710Z,52.10
2019-06-08T10:59:12.352Z,52.30
2019-06-08T11:01:42.142Z,51.90
2019-06-08T11:04:11.520Z,50.70
2019-06-08T11:06:40.810Z,51.30
2019-06-08T11:09:14.389Z,50.80
2019-06-08T11:11:41.169Z,50.90
2019-06-08T11:14:12.813Z,50.30
2019-06-08T11:16:41.507Z,51.70
2019-06-08T11:19:12.888Z,50.30
2019-06-08T11:21:41.913Z,51.00
2019-06-08T11:24:21.655Z,49.50
2019-06-08T11:26:42.274Z,46.90
2019-06-08T11:29:13.684Z,48.00
2019-06-08T11:31:42.658Z,44.70
2019-06-08T11:34:11.987Z,44.50
2019-06-08T11:36:41.389Z,45.40
2019-06-08T11:39:12.693Z,44.60
2019-06-08T11:41:41.859Z,43.80
2019-06-08T11:44:13.852Z,42.70
2019-06-08T11:46:42.794Z,43.60
2019-06-08T11:49:15.012Z,43.00
2019-06-08T11:51:43.941Z,44.30
2019-06-08T11:54:29.707Z,42.80
2019-06-08T11:56:45.207Z,40.80
2019-06-08T11:59:15.847Z,40.90
2019-06-08T12:01:45.128Z,40.60
2019-06-08T12:04:14.457Z,42.10
2019-06-08T12:06:43.823Z,41.20
2019-06-08T12:09:14.066Z,39.40
2019-06-08T12:11:44.156Z,38.80
2019-06-08T12:14:14.405Z,40.60
2019-06-08T12:16:44.420Z,40.70
2019-06-08T12:19:17.125Z,39.60
2019-06-08T12:21:44.841Z,39.10
2019-06-08T12:24:14.489Z,36.00
2019-06-08T12:26:44.361Z,37.20
2019-06-08T12:29:15.922Z,38.10
2019-06-08T12:31:44.758Z,36.10
2019-06-08T12:34:14.118Z,35.80
2019-06-08T12:36:43.445Z,37.10
2019-06-08T12:39:12.801Z,36.10
2019-06-08T12:41:42.093Z,37.20
2019-06-08T12:44:13.823Z,36.30
2019-06-08T12:46:42.462Z,36.90
2019-06-08T12:49:13.233Z,34.50
2019-06-08T12:51:42.845Z,36.00
2019-06-08T12:54:12.814Z,36.20
2019-06-08T12:56:43.185Z,35.30
2019-06-08T12:59:16.153Z,36.30
2019-06-08T13:01:43.555Z,38.00
2019-06-08T13:04:13.783Z,36.80
2019-06-08T13:06:43.716Z,34.30
2019-06-08T13:09:14.582Z,34.80
2019-06-08T13:11:44.081Z,35.60
2019-06-08T13:14:14.713Z,34.80
2019-06-08T13:16:44.474Z,35.80
2019-06-08T13:19:14.736Z,35.90
2019-06-08T13:21:44.873Z,37.20
2019-06-08T13:24:15.215Z,34.60
2019-06-08T13:26:45.183Z,34.30
2019-06-08T13:29:15.534Z,33.90
2019-06-08T13:31:45.481Z,35.50
2019-06-08T13:34:17.413Z,31.90
2019-06-08T13:36:48.273Z,34.90
2019-06-08T13:39:19.566Z,33.10
2019-06-08T13:41:48.168Z,32.60
2019-06-08T13:44:18.092Z,33.60
2019-06-08T13:46:47.888Z,32.40
2019-06-08T13:49:21.681Z,32.60
2019-06-08T13:51:50.727Z,32.20
2019-06-08T13:54:20.029Z,33.40
2019-06-08T13:56:50.655Z,34.40
2019-06-08T13:59:25.783Z,32.40
2019-06-08T14:01:51.619Z,32.00
2019-06-08T14:04:22.174Z,31.40
2019-06-08T14:06:51.978Z,30.20
2019-06-08T14:09:22.068Z,32.30
2019-06-08T14:11:52.337Z,30.40
2019-06-08T14:14:22.761Z,31.70
2019-06-08T14:16:52.696Z,29.90
2019-06-08T14:19:24.443Z,29.70
2019-06-08T14:21:53.100Z,30.90
2019-06-08T14:24:27.458Z,30.30
2019-06-08T14:26:53.472Z,30.70
2019-06-08T14:29:24.119Z,30.70
2019-06-08T14:31:53.793Z,30.50
2019-06-08T14:34:23.700Z,29.90
2019-06-08T14:36:54.157Z,32.00
2019-06-08T14:39:24.554Z,29.70
2019-06-08T14:41:54.545Z,30.60
2019-06-08T14:44:24.063Z,30.50
2019-06-08T14:46:53.958Z,30.90
2019-06-08T14:49:28.078Z,30.30
2019-06-08T14:51:54.309Z,28.60
2019-06-08T14:54:27.152Z,29.80
2019-06-08T14:56:54.667Z,29.10
2019-06-08T14:59:25.343Z,28.80
2019-06-08T15:01:54.917Z,29.20
2019-06-08T15:04:28.500Z,28.50
2019-06-08T15:06:55.308Z,30.20
2019-06-08T15:09:25.546Z,28.40
2019-06-08T15:11:58.007Z,29.60
2019-06-08T15:14:32.649Z,30.80
2019-06-08T15:16:59.011Z,28.80
2019-06-08T15:19:29.493Z,28.30
2019-06-08T15:21:59.799Z,29.30
2019-06-08T15:24:32.164Z,29.30
2019-06-08T15:27:00.653Z,28.60
2019-06-08T15:29:31.347Z,28.50
2019-06-08T15:32:01.039Z,28.80
2019-06-08T15:34:32.964Z,28.10
2019-06-08T15:37:01.429Z,28.70
2019-06-08T15:39:32.707Z,28.60
2019-06-08T15:42:02.785Z,29.40
2019-06-08T15:44:33.784Z,29.60
2019-06-08T15:47:03.242Z,29.30
2019-06-08T15:49:33.847Z,29.90
2019-06-08T15:52:03.370Z,29.60
2019-06-08T15:54:37.259Z,29.60
2019-06-08T15:57:03.709Z,30.00
2019-06-08T15:59:37.960Z,30.80
2019-06-08T16:02:04.058Z,30.20
2019-06-08T16:04:33.898Z,31.50
2019-06-08T16:07:04.453Z,32.10
2019-06-08T16:09:34.685Z,32.10
2019-06-08T16:12:04.014Z,31.90
2019-06-08T16:14:33.291Z,32.50
2019-06-08T16:17:02.665Z,33.10
2019-06-08T16:19:32.005Z,33.00
2019-06-08T16:22:01.303Z,34.60
2019-06-08T16:24:31.774Z,33.90
2019-06-08T16:27:01.668Z,34.40
2019-06-08T16:29:31.037Z,34.60
2019-06-08T16:32:00.386Z,36.10
2019-06-08T16:34:29.739Z,36.00
2019-06-08T16:36:59.055Z,36.20
2019-06-08T16:39:28.649Z,37.20
2019-06-08T16:41:58.566Z,38.50
2019-06-08T16:44:28.071Z,38.40
2019-06-08T16:46:58.079Z,38.70
2019-06-08T16:49:27.374Z,39.50
2019-06-08T16:51:56.677Z,39.40
2019-06-08T16:54:26.003Z,39.90
2019-06-08T16:57:08.845Z,40.60
2019-06-08T16:59:26.341Z,41.70
2019-06-08T17:01:55.633Z,41.60
2019-06-08T17:04:24.990Z,41.50
2019-06-08T17:06:54.265Z,42.20
2019-06-08T17:09:23.542Z,42.00
2019-06-08T17:11:52.882Z,42.10
2019-06-08T17:14:24.945Z,42.50
2019-06-08T17:16:53.278Z,42.20
2019-06-08T17:19:22.555Z,42.40
2019-06-08T17:21:51.906Z,43.30
2019-06-08T17:24:21.393Z,43.90
2019-06-08T17:26:51.314Z,43.30
2019-06-08T17:29:20.695Z,44.00
2019-06-08T17:31:50.044Z,44.20
2019-06-08T17:34:20.696Z,44.50
2019-06-08T17:36:50.378Z,45.00
2019-06-08T17:39:19.658Z,45.60
2019-06-08T17:41:48.993Z,46.30
2019-06-08T17:44:18.354Z,46.00
2019-06-08T17:46:47.649Z,45.80
2019-06-08T17:49:17.003Z,45.90
2019-06-08T17:51:46.281Z,45.90
2019-06-08T17:54:15.558Z,46.40
2019-06-08T17:56:44.885Z,47.20
2019-06-08T17:59:14.226Z,47.60
2019-06-08T18:01:43.625Z,48.20
2019-06-08T18:04:13.629Z,48.80
2019-06-08T18:06:43.393Z,49.60
2019-06-08T18:09:13.958Z,50.00
2019-06-08T18:12:02.341Z,50.70
2019-06-08T18:14:31.690Z,50.70
2019-06-08T18:17:00.988Z,51.50
2019-06-08T18:19:31.398Z,51.50
2019-06-08T18:22:06.220Z,51.70
2019-06-08T18:24:31.754Z,51.60
2019-06-08T18:27:01.096Z,52.50
2019-06-08T18:29:30.431Z,52.40
2019-06-08T18:31:59.730Z,52.70
2019-06-08T18:34:29.099Z,52.90
2019-06-08T18:36:58.563Z,53.10
2019-06-08T18:39:30.213Z,53.40
2019-06-08T18:41:59.953Z,53.70
2019-06-08T18:44:29.849Z,53.90
2019-06-08T18:46:59.222Z,54.00
2019-06-08T18:49:29.141Z,53.90
2019-06-08T18:51:59.370Z,54.00
2019-06-08T18:54:29.407Z,54.30
2019-06-08T18:56:58.809Z,54.60
2019-06-08T18:59:28.600Z,54.80
2019-06-08T19:01:58.938Z,55.10
2019-06-08T19:04:30.838Z,55.10
2019-06-08T19:07:02.347Z,55.30
2019-06-08T19:09:32.697Z,55.50
2019-06-08T19:12:02.038Z,55.60
2019-06-08T19:14:31.345Z,55.80
2019-06-08T19:17:00.662Z,55.40
2019-06-08T19:19:31.563Z,55.60
2019-06-08T19:22:01.013Z,56.70
2019-06-08T19:24:30.293Z,57.10
2019-06-08T19:26:59.950Z,57.70
2019-06-08T19:29:29.912Z,58.00
2019-06-08T19:32:00.477Z,58.70
2019-06-08T19:34:33.225Z,58.50
2019-06-08T19:37:01.418Z,58.50
2019-06-08T19:39:30.693Z,58.40
2019-06-08T19:42:00.192Z,57.60
2019-06-08T19:44:30.665Z,57.80
2019-06-08T19:47:00.578Z,57.40
2019-06-08T19:49:30.083Z,57.20
2019-06-08T19:52:00.072Z,56.50
2019-06-08T19:54:29.386Z,55.70
2019-06-08T19:56:58.715Z,55.90
2019-06-08T19:59:28.245Z,56.20
2019-06-08T20:01:59.862Z,55.70
2019-06-08T20:04:28.633Z,55.20
2019-06-08T20:07:00.581Z,54.80
2019-06-08T20:09:29.161Z,54.40
2019-06-08T20:12:00.151Z,54.90
2019-06-08T20:14:29.544Z,54.40
2019-06-08T20:16:58.868Z,54.40
2019-06-08T20:19:28.161Z,53.70
2019-06-08T20:21:58.307Z,53.70
2019-06-08T20:24:28.399Z,53.80
2019-06-08T20:26:57.902Z,54.30
2019-06-08T20:29:28.270Z,54.90
2019-06-08T20:31:58.429Z,55.30
2019-06-08T20:34:28.451Z,56.10
2019-06-08T20:37:00.676Z,56.70
2019-06-08T20:39:28.857Z,56.90
2019-06-08T20:41:58.733Z,57.10
2019-06-08T20:44:30.239Z,57.30
2019-06-08T20:46:59.215Z,57.20
2019-06-08T20:49:28.509Z,57.30
2019-06-08T20:52:00.466Z,57.20
2019-06-08T20:54:28.914Z,57.20
2019-06-08T20:56:58.216Z,57.80
2019-06-08T20:59:33.718Z,58.10
2019-06-08T21:01:59.099Z,58.60
2019-06-08T21:04:29.117Z,59.10
2019-06-08T21:06:58.531Z,59.10
2019-06-08T21:09:28.057Z,59.70
2019-06-08T21:11:58.719Z,60.20
2019-06-08T21:14:28.844Z,59.40
2019-06-08T21:16:58.710Z,59.80
2019-06-08T21:19:28.669Z,60.90
2019-06-08T21:21:59.290Z,60.40
2019-06-08T21:24:29.581Z,60.10
2019-06-08T21:27:00.523Z,60.40
2019-06-08T21:29:46.906Z,60.30
2019-06-08T21:32:02.669Z,60.00
2019-06-08T21:34:32.221Z,59.50
2019-06-08T21:37:01.507Z,59.00
2019-06-08T21:39:30.786Z,59.10
2019-06-08T21:42:03.038Z,59.40
2019-06-08T21:44:31.224Z,60.10
2019-06-08T21:47:01.570Z,60.90
2019-06-08T21:49:31.686Z,62.40
2019-06-08T21:52:01.400Z,60.60
2019-06-08T21:54:32.085Z,60.40
2019-06-08T21:57:01.420Z,61.30
2019-06-08T21:59:30.789Z,59.80
2019-06-08T22:02:02.633Z,60.50
2019-06-08T22:04:31.236Z,60.50
2019-06-08T22:07:01.534Z,61.00
2019-06-08T22:09:31.592Z,61.10
2019-06-08T22:12:01.088Z,58.90
2019-06-08T22:14:31.108Z,59.00
2019-06-08T22:17:01.485Z,59.50
2019-06-08T22:19:31.579Z,60.50
2019-06-08T22:22:01.948Z,63.00
2019-06-08T22:24:32.098Z,61.10
2019-06-08T22:27:01.942Z,62.00
2019-06-08T22:29:32.234Z,61.80
2019-06-08T22:32:01.510Z,61.20
2019-06-08T22:34:30.961Z,61.70
2019-06-08T22:37:00.475Z,61.30
2019-06-08T22:39:30.455Z,61.30
2019-06-08T22:42:01.170Z,61.00
2019-06-08T22:44:30.810Z,60.40
2019-06-08T22:47:01.547Z,60.20
2019-06-08T22:49:31.157Z,61.20
2019-06-08T22:52:01.358Z,60.70
2019-06-08T22:54:31.557Z,61.10
2019-06-08T22:57:03.004Z,60.30
2019-06-08T22:59:31.942Z,59.80
2019-06-08T23:02:04.063Z,59.50
2019-06-08T23:04:32.274Z,59.80
2019-06-08T23:07:04.448Z,60.80
2019-06-08T23:09:32.645Z,60.30
2019-06-08T23:12:04.394Z,59.30
2019-06-08T23:14:33.784Z,59.20
2019-06-08T23:17:03.989Z,62.80
2019-06-08T23:19:34.277Z,62.20
2019-06-08T23:22:04.038Z,66.50
2019-06-08T23:24:34.028Z,68.80
2019-06-08T23:27:04.259Z,69.40
2019-06-08T23:29:34.177Z,69.40
2019-06-08T23:32:04.819Z,70.60
2019-06-08T23:34:34.509Z,72.30
2019-06-08T23:37:23.494Z,73.30
2019-06-08T23:39:52.784Z,73.20
2019-06-08T23:42:22.114Z,74.20
2019-06-08T23:44:51.462Z,73.90
2019-06-08T23:47:20.741Z,73.60
2019-06-08T23:49:50.017Z,73.00
2019-06-08T23:52:19.395Z,73.90
2019-06-08T23:54:48.660Z,74.70
2019-06-08T23:57:18.113Z,74.60
2019-06-08T23:59:48.016Z,75.60
